Time;durP1;ratioP1;P1;durP2;ratioP2;P2;SDS_P1;SDS_P2;PMS_P1;PMS_P2;Temp;Humidity;BMP_temperature;BMP_pressure;BME280_temperature;BME280_humidity;BME280_pressure;Samples;Min_cycle;Max_cycle;Signal;HPM_P1;HPM_P2
2021/07/22 00:00:41;;;;;;;8.23;3.00;;;;;;;21.91;55.16;101779.25;5009167;28;20053;-41
2021/07/22 00:03:08;;;;;;;4.68;2.58;;;;;;;21.81;55.59;101780.81;5026522;28;20526;-42
2021/07/22 00:05:35;;;;;;;4.85;2.92;;;;;;;21.75;55.58;101778.75;5027448;28;20045;-41
2021/07/22 00:08:02;;;;;;;6.63;2.72;;;;;;;21.70;55.92;101779.16;5026607;28;20049;-46
2021/07/22 00:10:29;;;;;;;3.33;2.88;;;;;;;21.67;55.83;101783.56;5021151;28;20145;-42
2021/07/22 00:12:56;;;;;;;6.28;2.95;;;;;;;21.61;55.93;101779.50;5027398;28;20041;-42
2021/07/22 00:15:23;;;;;;;5.00;3.05;;;;;;;21.57;56.26;101778.69;5027164;28;20516;-42
2021/07/22 00:17:50;;;;;;;5.35;2.85;;;;;;;21.52;56.68;101767.00;5026825;28;20498;-45
2021/07/22 00:20:16;;;;;;;4.20;2.72;;;;;;;21.48;56.85;101769.78;5020656;28;20052;-42
2021/07/22 00:22:43;;;;;;;4.25;2.58;;;;;;;21.45;57.03;101770.56;5026379;28;20067;-43
2021/07/22 00:25:10;;;;;;;4.80;2.58;;;;;;;21.46;56.85;101760.91;5020023;28;20065;-42
2021/07/22 00:27:37;;;;;;;6.45;2.60;;;;;;;21.42;56.79;101764.94;5025571;28;20052;-42
2021/07/22 00:30:05;;;;;;;5.43;2.83;;;;;;;21.38;57.19;101764.09;5026162;28;20073;-42
2021/07/22 00:32:32;;;;;;;5.68;2.67;;;;;;;21.39;57.32;101768.53;5026390;28;20053;-40
2021/07/22 00:34:58;;;;;;;5.30;2.67;;;;;;;21.50;57.05;101772.22;5026930;28;20490;-42
2021/07/22 00:37:25;;;;;;;5.45;3.28;;;;;;;21.43;57.20;101772.16;5025488;28;20057;-42
2021/07/22 00:39:52;;;;;;;3.65;2.65;;;;;;;21.36;57.24;101760.88;5023748;28;20057;-45
2021/07/22 00:42:19;;;;;;;6.22;2.80;;;;;;;21.33;57.59;101768.09;5022105;28;20145;-41
2021/07/22 00:44:46;;;;;;;6.10;2.72;;;;;;;21.31;57.67;101769.69;5025786;28;20111;-42
2021/07/22 00:47:13;;;;;;;7.55;2.78;;;;;;;21.32;57.37;101768.47;5027215;28;20137;-42
2021/07/22 00:49:41;;;;;;;8.30;4.07;;;;;;;21.24;57.63;101768.44;5022012;28;20453;-42
2021/07/22 00:52:07;;;;;;;5.50;3.17;;;;;;;21.23;57.94;101769.63;5017310;28;20091;-40
2021/07/22 00:54:34;;;;;;;4.68;3.65;;;;;;;21.24;57.83;101764.81;5026465;28;20053;-42
2021/07/22 00:57:01;;;;;;;5.65;3.83;;;;;;;21.28;57.49;101759.22;5025992;28;20057;-45
2021/07/22 00:59:27;;;;;;;6.43;3.35;;;;;;;21.26;57.30;101768.03;5025372;28;20095;-42
2021/07/22 01:01:54;;;;;;;6.95;3.53;;;;;;;21.23;57.11;101764.00;5026051;28;20486;-42
2021/07/22 01:04:21;;;;;;;4.93;3.45;;;;;;;21.18;56.91;101763.59;5026124;28;20057;-42
2021/07/22 01:06:48;;;;;;;7.32;3.28;;;;;;;21.13;57.24;101758.28;5024578;28;20437;-42
2021/07/22 01:09:16;;;;;;;5.78;3.33;;;;;;;21.15;57.11;101755.91;5026076;28;20530;-42
2021/07/22 01:11:42;;;;;;;8.18;3.80;;;;;;;21.06;57.49;101753.44;5026819;28;20079;-47
2021/07/22 01:14:09;;;;;;;7.43;3.40;;;;;;;21.00;57.55;101754.97;5021929;28;20061;-40
2021/07/22 01:16:39;;;;;;;6.20;4.03;;;;;;;21.00;57.70;101754.97;5026028;28;20057;-45
2021/07/22 01:19:05;;;;;;;12.13;4.82;;;;;;;20.96;58.01;101751.34;5023651;28;20398;-41
2021/07/22 01:21:32;;;;;;;11.07;4.65;;;;;;;20.93;58.35;101754.13;5025094;28;20148;-45
2021/07/22 01:23:59;;;;;;;7.47;4.05;;;;;;;20.88;58.32;101746.03;5025773;28;20061;-42
2021/07/22 01:26:25;;;;;;;5.47;4.30;;;;;;;20.82;58.68;101748.41;5025812;28;20451;-42
2021/07/22 01:28:52;;;;;;;8.77;4.63;;;;;;;20.82;58.39;101747.59;5025402;28;20064;-48
2021/07/22 01:31:24;;;;;;;6.85;4.40;;;;;;;20.82;58.85;101742.78;5025898;28;20506;-42
2021/07/22 01:33:52;;;;;;;10.60;5.53;;;;;;;20.90;58.32;101744.44;5021156;28;20061;-41
2021/07/22 01:36:23;;;;;;;12.65;5.80;;;;;;;20.94;58.21;101745.28;5025753;28;20053;-42
2021/07/22 01:38:51;;;;;;;9.40;5.82;;;;;;;20.86;58.61;101740.81;5025005;28;20582;-47
2021/07/22 01:41:18;;;;;;;8.45;4.55;;;;;;;20.78;58.83;101747.59;5026182;28;20196;-42
2021/07/22 01:43:45;;;;;;;7.22;4.50;;;;;;;20.64;59.14;101753.09;5024480;28;20053;-42
2021/07/22 01:46:18;;;;;;;9.88;4.85;;;;;;;20.54;59.83;101745.38;5024919;28;20064;-42
2021/07/22 01:48:46;;;;;;;6.95;4.07;;;;;;;20.50;60.02;101747.34;5024891;28;20099;-43
2021/07/22 01:51:12;;;;;;;9.48;4.60;;;;;;;20.45;60.04;101750.50;5013226;28;20470;-41
2021/07/22 01:53:39;;;;;;;7.80;4.80;;;;;;;20.40;60.08;101753.69;5026515;28;20054;-42
2021/07/22 01:56:06;;;;;;;8.38;4.63;;;;;;;20.37;60.25;101748.81;5011811;28;20053;-41
2021/07/22 01:58:34;;;;;;;8.77;4.22;;;;;;;20.34;60.42;101749.59;5029498;28;20130;-47
2021/07/22 02:01:02;;;;;;;7.03;4.80;;;;;;;20.33;60.66;101748.00;5028372;28;20088;-42
2021/07/22 02:03:30;;;;;;;8.63;4.75;;;;;;;20.32;60.42;101746.38;5027930;28;20057;-41
2021/07/22 02:05:57;;;;;;;10.18;5.03;;;;;;;20.29;60.55;101749.97;5029922;28;20119;-43
2021/07/22 02:08:24;;;;;;;9.38;5.03;;;;;;;20.26;60.58;101748.72;5028569;28;20049;-42
2021/07/22 02:10:50;;;;;;;8.63;5.85;;;;;;;20.20;60.76;101755.06;5028962;28;20735;-41
2021/07/22 02:13:17;;;;;;;7.30;5.68;;;;;;;20.18;60.63;101746.19;5028304;28;20061;-42
2021/07/22 02:15:44;;;;;;;8.15;4.50;;;;;;;20.17;60.50;101747.41;5029060;28;20053;-42
2021/07/22 02:18:11;;;;;;;7.13;4.78;;;;;;;20.15;60.30;101747.00;5028270;28;20057;-43
2021/07/22 02:20:37;;;;;;;9.27;4.97;;;;;;;20.12;60.72;101747.75;5022896;28;20053;-43
2021/07/22 02:23:04;;;;;;;8.95;4.53;;;;;;;20.05;60.92;101743.66;5028733;28;20049;-42
2021/07/22 02:25:31;;;;;;;9.45;5.22;;;;;;;20.03;60.79;101751.69;5028218;28;20123;-42
2021/07/22 02:27:58;;;;;;;8.10;4.72;;;;;;;20.01;60.56;101748.44;5029043;28;20058;-42
2021/07/22 02:30:24;;;;;;;11.07;5.18;;;;;;;19.99;60.76;101750.81;5028154;28;20049;-42
2021/07/22 02:32:51;;;;;;;7.50;4.60;;;;;;;19.95;61.00;101752.81;5028000;28;20057;-49
2021/07/22 02:35:19;;;;;;;7.60;4.85;;;;;;;19.94;60.89;101753.97;5027850;28;20052;-43
2021/07/22 02:37:46;;;;;;;6.25;4.13;;;;;;;19.88;61.15;101743.47;5028441;28;20136;-42
2021/07/22 02:40:13;;;;;;;8.75;4.05;;;;;;;19.84;61.11;101751.88;5027814;28;20053;-42
2021/07/22 02:42:40;;;;;;;5.68;4.30;;;;;;;19.80;61.34;101753.03;5026776;28;20485;-41
2021/07/22 02:45:08;;;;;;;6.43;3.95;;;;;;;19.78;61.44;101750.59;5018092;28;20538;-42
2021/07/22 02:47:35;;;;;;;7.43;4.25;;;;;;;19.75;61.41;101756.19;5027068;28;20140;-43
2021/07/22 02:50:02;;;;;;;5.47;4.18;;;;;;;19.67;61.71;101744.03;5028349;28;20516;-44
2021/07/22 02:52:29;;;;;;;7.65;4.82;;;;;;;19.62;61.92;101741.56;5027562;28;20053;-41
2021/07/22 02:54:56;;;;;;;8.88;4.43;;;;;;;19.58;62.07;101740.72;5027068;28;20502;-42
2021/07/22 02:57:23;;;;;;;11.45;3.65;;;;;;;19.52;62.33;101741.41;5027807;28;20077;-41
2021/07/22 02:59:50;;;;;;;8.70;4.32;;;;;;;19.48;62.48;101741.41;5027121;28;20049;-46
2021/07/22 03:02:16;;;;;;;7.68;4.18;;;;;;;19.49;62.58;101736.56;5028215;28;20061;-44
2021/07/22 03:04:43;;;;;;;5.97;3.88;;;;;;;19.49;62.39;101743.00;5026858;28;20064;-42
2021/07/22 03:07:10;;;;;;;8.25;4.35;;;;;;;19.47;62.51;101741.75;5027383;28;20072;-44
2021/07/22 03:09:37;;;;;;;6.97;4.65;;;;;;;19.44;62.40;101740.53;5011472;28;20150;-48
2021/07/22 03:12:04;;;;;;;4.68;3.95;;;;;;;19.41;62.51;101735.66;5022241;28;20060;-42
2021/07/22 03:14:31;;;;;;;6.18;4.38;;;;;;;19.40;62.64;101739.69;5026572;28;20104;-42
2021/07/22 03:16:57;;;;;;;7.55;3.80;;;;;;;19.36;62.37;101738.78;5027457;28;20057;-42
2021/07/22 03:19:24;;;;;;;4.53;3.63;;;;;;;19.37;62.41;101741.25;5027673;28;20053;-42
2021/07/22 03:21:51;;;;;;;4.75;3.28;;;;;;;19.36;62.43;101733.97;5027036;28;20147;-43
2021/07/22 03:24:20;;;;;;;5.78;4.25;;;;;;;19.35;62.68;101737.19;5027843;28;20056;-42
2021/07/22 03:26:47;;;;;;;6.30;3.45;;;;;;;19.42;62.29;101734.50;5026831;28;20061;-43
2021/07/22 03:29:13;;;;;;;3.55;3.15;;;;;;;19.42;62.29;101734.50;5027627;28;20061;-42
2021/07/22 03:31:40;;;;;;;8.80;3.25;;;;;;;19.41;62.31;101735.66;5027518;28;20608;-42
2021/07/22 03:34:07;;;;;;;4.97;2.67;;;;;;;19.42;62.08;101731.69;5022107;28;20123;-45
2021/07/22 03:36:34;;;;;;;3.47;2.78;;;;;;;19.40;62.26;101728.44;5027222;28;20065;-42
2021/07/22 03:39:01;;;;;;;3.55;2.55;;;;;;;19.37;62.39;101730.03;5027600;28;20052;-42
2021/07/22 03:41:28;;;;;;;4.70;3.20;;;;;;;19.38;62.76;101734.44;5026757;28;20085;-45
2021/07/22 03:43:59;;;;;;;4.30;3.10;;;;;;;19.35;62.61;101732.34;5027105;28;20064;-45
2021/07/22 03:46:25;;;;;;;5.25;3.17;;;;;;;19.35;62.46;101742.78;5026822;28;20128;-42
2021/07/22 03:48:52;;;;;;;4.45;3.10;;;;;;;19.36;62.32;101741.59;5024816;28;20045;-46
2021/07/22 03:51:22;;;;;;;5.40;3.03;;;;;;;19.32;62.62;101749.16;5017158;28;20140;-46
2021/07/22 03:53:49;;;;;;;5.32;3.67;;;;;;;19.27;62.75;101749.50;5026769;28;20077;-42
2021/07/22 03:56:16;;;;;;;5.90;3.20;;;;;;;19.22;62.89;101738.59;5026376;28;20064;-44
2021/07/22 03:58:44;;;;;;;5.90;3.45;;;;;;;19.19;62.90;101736.56;5026683;28;20058;-42
2021/07/22 04:01:11;;;;;;;5.43;3.80;;;;;;;19.17;63.35;101730.47;5025269;28;20046;-46
2021/07/22 04:03:38;;;;;;;5.88;3.88;;;;;;;19.15;63.19;101738.47;5026744;28;20061;-42
2021/07/22 04:06:05;;;;;;;8.23;3.90;;;;;;;19.12;63.30;101739.25;5025860;28;20136;-40
2021/07/22 04:08:31;;;;;;;6.03;4.05;;;;;;;19.10;63.51;101742.44;5026060;28;20089;-41
2021/07/22 04:11:01;;;;;;;7.93;3.67;;;;;;;19.15;63.23;101738.47;5027008;28;20053;-42
2021/07/22 04:13:28;;;;;;;7.75;4.07;;;;;;;19.13;63.42;101738.06;5026293;28;20056;-42
2021/07/22 04:15:54;;;;;;;6.00;4.03;;;;;;;19.15;63.27;101736.50;5017855;28;20495;-41
2021/07/22 04:18:21;;;;;;;5.15;3.85;;;;;;;19.14;63.33;101722.84;5026424;28;20053;-42
2021/07/22 04:20:48;;;;;;;8.77;4.38;;;;;;;19.16;63.53;101734.50;5023758;28;20498;-42
2021/07/22 04:23:15;;;;;;;8.82;4.50;;;;;;;19.18;63.50;101726.50;5025339;28;20136;-42
2021/07/22 04:25:42;;;;;;;6.55;4.35;;;;;;;19.22;63.37;101730.19;5024133;28;20053;-47
2021/07/22 04:28:08;;;;;;;6.25;5.00;;;;;;;19.24;63.30;101725.00;5026585;28;20061;-42
2021/07/22 04:30:37;;;;;;;6.13;4.30;;;;;;;19.21;63.55;101728.56;5026006;28;20059;-43
2021/07/22 04:33:05;;;;;;;6.82;4.38;;;;;;;19.24;63.22;101725.00;5009041;28;20139;-42
2021/07/22 04:35:32;;;;;;;6.15;4.07;;;;;;;19.20;63.41;101726.91;5009132;28;20149;-41
2021/07/22 04:37:59;;;;;;;8.10;4.30;;;;;;;19.18;63.60;101727.31;5026333;28;20075;-50
2021/07/22 04:40:26;;;;;;;9.52;4.82;;;;;;;19.19;63.58;101733.75;5026350;28;20053;-43
2021/07/22 04:42:53;;;;;;;8.35;4.75;;;;;;;19.17;63.74;101733.28;5024385;28;20065;-42
2021/07/22 04:45:20;;;;;;;6.68;3.90;;;;;;;19.21;63.39;101737.78;5022047;28;20064;-42
2021/07/22 04:47:46;;;;;;;8.15;4.38;;;;;;;19.23;63.31;101732.59;5025970;28;20328;-41
2021/07/22 04:50:13;;;;;;;8.07;4.32;;;;;;;19.24;63.07;101730.59;5025530;28;20061;-42
2021/07/22 04:52:40;;;;;;;8.25;5.10;;;;;;;19.24;63.22;101733.41;5025371;28;20413;-42
2021/07/22 04:55:07;;;;;;;8.88;4.53;;;;;;;19.23;63.29;101721.38;5025368;28;20057;-43
2021/07/22 04:57:34;;;;;;;9.35;3.83;;;;;;;19.24;63.15;101728.63;5025351;28;20053;-41
2021/07/22 05:00:03;;;;;;;8.55;4.55;;;;;;;19.23;63.28;101734.59;5025059;28;20057;-48
2021/07/22 05:02:30;;;;;;;10.93;5.30;;;;;;;19.23;63.38;101734.59;5026561;28;20057;-43
2021/07/22 05:04:57;;;;;;;8.88;4.53;;;;;;;19.23;63.52;101735.41;5023962;28;20052;-42
2021/07/22 05:07:24;;;;;;;6.80;4.45;;;;;;;19.22;63.69;101733.78;5026484;28;20067;-43
2021/07/22 05:09:51;;;;;;;12.02;5.18;;;;;;;19.26;63.64;101734.66;5024773;28;20057;-42
2021/07/22 05:12:19;;;;;;;8.40;4.30;;;;;;;19.27;63.60;101729.84;5041515;28;20140;-43
2021/07/22 05:14:47;;;;;;;10.13;4.68;;;;;;;19.28;63.88;101732.25;5021679;28;20496;-42
2021/07/22 05:17:14;;;;;;;7.78;4.40;;;;;;;19.30;63.68;101732.69;5025607;28;20065;-44
2021/07/22 05:19:41;;;;;;;10.90;4.72;;;;;;;19.31;63.77;101739.94;5024535;28;20045;-42
2021/07/22 05:22:08;;;;;;;11.73;4.40;;;;;;;19.36;63.41;101738.78;5025911;28;20058;-48
2021/07/22 05:24:34;;;;;;;5.60;4.07;;;;;;;19.36;63.67;101739.59;5025696;28;20057;-42
2021/07/22 05:27:01;;;;;;;7.90;4.80;;;;;;;19.42;63.63;101740.09;5026165;28;20064;-44
2021/07/22 05:29:28;;;;;;;4.75;3.50;;;;;;;19.40;63.69;101740.50;5028632;28;20060;-43
2021/07/22 05:31:55;;;;;;;18.30;5.40;;;;;;;19.41;63.53;101746.91;5030108;28;20058;-43
2021/07/22 05:34:22;;;;;;;8.85;3.58;;;;;;;19.43;63.52;101745.31;5029325;28;20092;-43
2021/07/22 05:36:49;;;;;;;5.75;3.35;;;;;;;19.49;63.50;101745.81;5029885;28;20140;-42
2021/07/22 05:39:16;;;;;;;4.47;3.28;;;;;;;19.56;63.12;101757.16;5030769;28;20123;-43
2021/07/22 05:41:43;;;;;;;6.20;3.72;;;;;;;19.64;63.10;101747.63;5029032;28;20053;-42
2021/07/22 05:44:10;;;;;;;6.22;3.63;;;;;;;19.72;62.40;101749.31;5028520;28;20050;-42
2021/07/22 05:46:36;;;;;;;8.23;3.92;;;;;;;19.77;62.48;101742.56;5027087;28;20560;-42
2021/07/22 05:49:05;;;;;;;5.85;3.53;;;;;;;19.79;62.41;101740.97;5030378;28;20057;-43
2021/07/22 05:51:32;;;;;;;4.93;3.65;;;;;;;19.84;62.63;101737.81;5029064;28;20061;-49
2021/07/22 05:53:59;;;;;;;9.10;4.03;;;;;;;19.90;62.46;101741.91;5030083;28;20132;-42
2021/07/22 05:56:31;;;;;;;5.15;3.38;;;;;;;19.95;62.35;101737.94;5029197;28;20119;-42
2021/07/22 05:58:58;;;;;;;6.25;3.00;;;;;;;20.02;61.93;101738.00;5029525;28;20057;-43
2021/07/22 06:01:25;;;;;;;5.35;2.83;;;;;;;20.08;62.08;101744.91;5027921;28;20054;-43
2021/07/22 06:03:54;;;;;;;7.35;3.92;;;;;;;20.12;62.56;101737.28;5029933;28;20057;-41
2021/07/22 06:06:21;;;;;;;5.40;3.58;;;;;;;20.17;62.96;101744.59;5028799;28;20405;-43
2021/07/22 06:08:48;;;;;;;6.35;3.78;;;;;;;20.22;62.98;101741.44;5030220;28;20115;-42
2021/07/22 06:11:15;;;;;;;5.63;3.75;;;;;;;20.28;63.27;101748.34;5029218;28;20057;-42
2021/07/22 06:13:42;;;;;;;10.38;4.05;;;;;;;20.34;63.72;101743.97;5023576;28;20064;-42
2021/07/22 06:16:11;;;;;;;5.68;3.40;;;;;;;20.40;63.95;101734.81;5017914;28;20049;-41
2021/07/22 06:18:42;;;;;;;4.35;2.60;;;;;;;20.44;64.68;101732.81;5029135;28;20057;-41
2021/07/22 06:21:14;;;;;;;4.82;2.85;;;;;;;20.51;64.63;101738.53;5027878;28;20614;-44
2021/07/22 06:23:43;;;;;;;6.18;3.80;;;;;;;20.56;64.85;101737.34;5028341;28;20057;-47
2021/07/22 06:26:11;;;;;;;6.18;3.47;;;;;;;20.64;64.48;101739.03;5027793;28;20104;-43
2021/07/22 06:28:38;;;;;;;7.55;2.97;;;;;;;20.69;64.68;101744.28;5011001;28;20072;-41
2021/07/22 06:31:05;;;;;;;4.80;3.75;;;;;;;20.73;64.59;101733.84;5017327;28;20059;-41
2021/07/22 06:33:33;;;;;;;5.47;3.28;;;;;;;20.78;64.69;101749.59;5028636;28;20068;-41
2021/07/22 06:36:01;;;;;;;6.07;3.05;;;;;;;20.82;64.42;101739.97;5025433;28;20045;-44
2021/07/22 06:38:31;;;;;;;4.03;2.80;;;;;;;20.86;64.65;101746.44;5034375;28;20057;-42
2021/07/22 06:40:57;;;;;;;5.30;3.47;;;;;;;20.89;64.21;101742.03;5029743;28;20059;-42
2021/07/22 06:43:25;;;;;;;7.97;3.25;;;;;;;20.93;64.58;101738.03;5022461;28;20502;-43
2021/07/22 06:45:52;;;;;;;5.05;2.92;;;;;;;20.98;64.24;101746.13;5027146;28;20045;-42
2021/07/22 06:48:19;;;;;;;4.57;2.97;;;;;;;21.02;64.38;101741.31;5031312;28;20628;-45
2021/07/22 06:50:45;;;;;;;9.80;3.95;;;;;;;21.06;64.17;101742.19;5031987;28;20050;-42
2021/07/22 06:53:12;;;;;;;8.52;4.05;;;;;;;21.12;63.95;101746.25;5027595;28;20111;-43
2021/07/22 06:55:39;;;;;;;7.07;3.05;;;;;;;21.21;63.49;101743.06;5028444;28;20410;-41
2021/07/22 06:58:07;;;;;;;8.85;3.10;;;;;;;21.27;63.20;101746.31;5025497;28;20139;-42
2021/07/22 07:00:35;;;;;;;6.43;2.65;;;;;;;21.34;63.05;101740.75;5007997;28;20057;-43
2021/07/22 07:03:10;;;;;;;6.07;2.75;;;;;;;21.39;63.44;101741.19;5026149;28;20139;-42
2021/07/22 07:05:37;;;;;;;6.35;2.67;;;;;;;21.44;62.57;101739.97;5022964;28;20115;-41
2021/07/22 07:08:04;;;;;;;8.20;2.47;;;;;;;21.49;62.39;101742.41;5025954;28;20127;-43
2021/07/22 07:10:31;;;;;;;4.30;2.85;;;;;;;21.52;61.95;101738.81;5022245;28;20163;-42
2021/07/22 07:12:57;;;;;;;3.80;2.92;;;;;;;21.52;62.03;101736.81;5020263;28;20129;-42
2021/07/22 07:15:24;;;;;;;8.55;2.42;;;;;;;21.54;62.09;101736.41;5026077;28;20041;-40
2021/07/22 07:17:52;;;;;;;5.60;2.33;;;;;;;21.59;61.76;101734.00;5025767;28;20577;-42
2021/07/22 07:20:19;;;;;;;9.18;3.03;;;;;;;21.67;61.76;101740.47;5023631;28;20058;-44
2021/07/22 07:22:46;;;;;;;3.92;2.55;;;;;;;21.75;61.89;101733.66;5021212;28;20065;-40
2021/07/22 07:25:12;;;;;;;6.13;2.40;;;;;;;21.83;61.36;101733.28;5019528;28;20387;-50
2021/07/22 07:27:40;;;;;;;6.10;2.88;;;;;;;21.92;60.92;101732.94;5019319;28;20049;-43
2021/07/22 07:30:08;;;;;;;5.03;3.00;;;;;;;22.02;60.97;101725.72;5003877;28;20435;-43
2021/07/22 07:32:35;;;;;;;7.28;3.53;;;;;;;22.15;61.02;101719.28;5023155;28;20129;-43
2021/07/22 07:35:02;;;;;;;7.38;2.72;;;;;;;22.26;60.92;101720.13;5021348;28;20192;-42
2021/07/22 07:37:29;;;;;;;3.28;2.85;;;;;;;22.39;60.96;101724.16;5024094;28;20041;-43
2021/07/22 07:39:57;;;;;;;3.40;2.50;;;;;;;22.52;60.77;101729.41;5026069;28;20149;-43
2021/07/22 07:42:24;;;;;;;5.07;2.97;;;;;;;22.63;60.49;101731.03;5025170;28;20064;-43
2021/07/22 07:44:52;;;;;;;4.43;2.90;;;;;;;22.78;60.43;101726.19;5020931;28;20452;-43
2021/07/22 07:47:19;;;;;;;6.45;3.00;;;;;;;22.94;60.70;101723.75;5026225;28;20053;-42
2021/07/22 07:49:46;;;;;;;6.35;2.83;;;;;;;23.11;60.39;101733.41;5026632;28;20458;-44
2021/07/22 07:52:15;;;;;;;2.90;1.90;;;;;;;23.29;60.38;101736.97;5026028;28;20041;-48
2021/07/22 07:54:42;;;;;;;4.93;2.90;;;;;;;23.53;60.64;101736.13;5026187;28;20148;-44
2021/07/22 07:57:09;;;;;;;4.00;2.85;;;;;;;23.78;60.41;101736.00;5025146;28;20183;-45
2021/07/22 07:59:36;;;;;;;4.07;3.10;;;;;;;24.10;59.54;101742.31;5024082;28;20057;-46
2021/07/22 08:02:03;;;;;;;8.52;3.00;;;;;;;24.47;58.79;101739.63;5024529;28;20084;-45
2021/07/22 08:04:30;;;;;;;4.50;3.08;;;;;;;24.83;57.78;101739.38;5023733;28;20919;-50
2021/07/22 08:06:56;;;;;;;7.00;3.10;;;;;;;25.14;56.46;101741.06;5025289;28;20045;-44
2021/07/22 08:09:26;;;;;;;5.03;2.92;;;;;;;25.50;54.76;101744.31;5024459;28;20158;-48
2021/07/22 08:11:53;;;;;;;6.13;3.40;;;;;;;25.90;53.59;101734.88;5016306;28;20057;-51
2021/07/22 08:14:19;;;;;;;5.97;3.67;;;;;;;26.34;52.13;101733.88;5012442;28;20054;-47
2021/07/22 08:16:46;;;;;;;4.18;3.13;;;;;;;26.80;51.35;101730.25;5025125;28;20804;-46
2021/07/22 08:19:14;;;;;;;5.30;3.58;;;;;;;27.21;50.07;101733.56;5035024;28;20049;-49
2021/07/22 08:21:41;;;;;;;6.95;4.28;;;;;;;27.55;49.03;101731.28;5033826;28;20053;-49
2021/07/22 08:24:08;;;;;;;4.55;3.80;;;;;;;27.78;48.27;101733.22;5035337;28;20062;-45
2021/07/22 08:26:35;;;;;;;9.73;5.57;;;;;;;27.91;47.60;101736.97;5040674;28;20902;-44
2021/07/22 08:29:02;;;;;;;6.28;4.20;;;;;;;28.06;47.57;101735.47;5025182;28;20137;-46
2021/07/22 08:31:31;;;;;;;7.68;4.00;;;;;;;28.22;47.34;101729.78;5032936;28;20061;-46
2021/07/22 08:33:57;;;;;;;5.85;3.67;;;;;;;28.47;47.21;101728.38;5027916;28;20049;-45
2021/07/22 08:36:24;;;;;;;5.18;3.72;;;;;;;28.54;46.50;101728.22;5034474;28;20053;-47
2021/07/22 08:38:51;;;;;;;12.75;4.03;;;;;;;28.57;46.37;101727.34;5035012;28;20085;-47
2021/07/22 08:41:18;;;;;;;10.65;4.10;;;;;;;28.55;46.29;101718.41;5037042;28;20729;-47
2021/07/22 08:43:49;;;;;;;6.57;4.18;;;;;;;28.43;46.18;101727.66;5028356;28;20148;-54
2021/07/22 08:46:17;;;;;;;10.10;5.97;;;;;;;28.30;46.51;101719.81;5035026;28;20140;-45
2021/07/22 08:48:44;;;;;;;8.35;5.20;;;;;;;28.20;46.28;101715.19;5025115;28;20068;-50
2021/07/22 08:51:11;;;;;;;10.75;5.65;;;;;;;28.08;46.64;101712.25;5026653;28;20061;-48
2021/07/22 08:53:40;;;;;;;8.98;5.18;;;;;;;27.78;47.59;101710.44;5035461;28;20058;-46
2021/07/22 08:56:09;;;;;;;7.65;4.38;;;;;;;27.66;47.87;101711.13;5033409;28;20458;-44
2021/07/22 08:58:40;;;;;;;7.10;5.40;;;;;;;27.66;48.57;101714.78;5033266;28;20156;-48
2021/07/22 09:01:11;;;;;;;9.60;4.82;;;;;;;27.75;48.71;101717.00;5024059;28;20136;-46
2021/07/22 09:03:38;;;;;;;12.00;5.93;;;;;;;27.80;48.58;101722.19;5021521;28;20049;-47
2021/07/22 09:06:23;;;;;;;9.15;5.28;;;;;;;27.76;48.61;101719.44;5024605;28;20053;-46
2021/07/22 09:08:50;;;;;;;8.10;5.22;;;;;;;27.75;48.55;101722.69;5022266;28;20052;-45
2021/07/22 09:11:18;;;;;;;12.02;4.95;;;;;;;27.69;48.40;101722.41;5018566;28;20056;-49
2021/07/22 09:13:47;;;;;;;11.07;4.90;;;;;;;27.71;48.19;101717.09;5016116;28;20057;-53
2021/07/22 09:16:14;;;;;;;13.02;4.63;;;;;;;27.84;47.89;101720.06;5025130;28;20046;-43
2021/07/22 09:18:44;;;;;;;10.30;4.97;;;;;;;27.97;47.60;101717.34;5023342;28;20502;-44
2021/07/22 09:21:24;;;;;;;6.85;4.38;;;;;;;28.17;46.66;101720.97;5025044;28;20457;-44
2021/07/22 09:24:11;;;;;;;6.63;4.00;;;;;;;28.20;46.85;101720.06;5024534;28;20144;-49
2021/07/22 09:26:39;;;;;;;9.25;5.10;;;;;;;28.29;46.54;101717.44;5024118;28;20053;-45
2021/07/22 09:29:11;;;;;;;11.43;5.30;;;;;;;28.13;46.15;101712.53;5024145;28;20632;-46
2021/07/22 09:31:38;;;;;;;6.90;4.70;;;;;;;28.05;46.59;101719.63;5024018;28;20068;-45
2021/07/22 09:34:25;;;;;;;8.57;4.80;;;;;;;28.03;46.83;101722.13;5024322;28;20354;-48
2021/07/22 09:36:52;;;;;;;6.38;4.53;;;;;;;28.03;46.82;101712.78;5021517;28;20107;-48
2021/07/22 09:39:23;;;;;;;6.60;4.72;;;;;;;28.14;46.46;101716.16;5022577;28;20107;-47
2021/07/22 09:42:06;;;;;;;6.20;4.93;;;;;;;28.27;46.80;101720.72;5027550;28;20290;-45
2021/07/22 09:44:38;;;;;;;12.02;5.97;;;;;;;28.28;46.13;101713.78;5022886;28;20157;-44
2021/07/22 09:47:09;;;;;;;6.38;4.28;;;;;;;28.01;46.13;101721.69;5031204;28;20057;-51
2021/07/22 09:49:38;;;;;;;10.07;5.60;;;;;;;28.01;46.10;101716.00;5035638;28;20132;-53
2021/07/22 09:52:17;;;;;;;14.57;6.03;;;;;;;27.96;46.27;101722.22;5027292;28;20503;-50
2021/07/22 09:54:44;;;;;;;8.00;4.28;;;;;;;27.94;46.54;101713.34;5032462;28;20163;-48
2021/07/22 09:57:15;;;;;;;9.38;5.43;;;;;;;27.77;46.38;101711.72;5035411;28;20050;-44
2021/07/22 09:59:44;;;;;;;9.00;6.10;;;;;;;27.69;46.24;101708.19;5034666;28;20056;-49
2021/07/22 10:02:22;;;;;;;10.77;5.55;;;;;;;27.51;47.43;101701.31;5001532;28;20135;-48
2021/07/22 10:04:57;;;;;;;10.30;5.47;;;;;;;27.53;47.56;101698.81;5020730;28;20053;-47
2021/07/22 10:07:25;;;;;;;8.05;5.65;;;;;;;27.71;47.48;101710.63;5024154;28;20077;-48
2021/07/22 10:09:54;;;;;;;9.20;5.10;;;;;;;27.97;47.79;101706.75;5022935;28;20132;-46
2021/07/22 10:12:22;;;;;;;11.75;6.53;;;;;;;28.21;46.86;101711.09;5021064;28;20172;-46
2021/07/22 10:14:57;;;;;;;8.40;5.43;;;;;;;28.52;46.58;101713.59;5022614;28;20136;-46
2021/07/22 10:17:31;;;;;;;6.53;5.00;;;;;;;28.94;46.28;101715.34;5016632;28;20064;-50
2021/07/22 10:20:00;;;;;;;10.13;5.60;;;;;;;29.21;45.80;101720.75;5031110;28;20041;-45
2021/07/22 10:22:28;;;;;;;11.48;6.55;;;;;;;29.12;45.37;101718.53;5018428;28;20068;-50
2021/07/22 10:24:55;;;;;;;8.70;5.30;;;;;;;29.21;45.44;101721.56;5030970;28;20057;-49
2021/07/22 10:27:25;;;;;;;8.38;6.47;;;;;;;29.33;45.18;101715.13;5042735;28;20045;-46
2021/07/22 10:29:53;;;;;;;8.65;5.05;;;;;;;29.30;44.58;101723.78;5030805;28;20272;-45
2021/07/22 10:32:28;;;;;;;7.22;5.10;;;;;;;29.24;44.65;101723.53;5037972;28;20133;-45
2021/07/22 10:34:55;;;;;;;7.68;5.93;;;;;;;29.15;45.04;101726.19;5027710;28;20056;-47
2021/07/22 10:37:22;;;;;;;8.32;6.00;;;;;;;29.07;44.84;101721.91;5031959;28;20142;-51
2021/07/22 10:40:09;;;;;;;9.55;5.82;;;;;;;29.05;45.12;101715.88;5033955;28;20095;-49
2021/07/22 10:42:42;;;;;;;9.55;6.45;;;;;;;28.87;45.10;101726.97;5028115;28;20053;-46
2021/07/22 10:45:26;;;;;;;9.48;5.78;;;;;;;28.34;46.25;101720.56;5029684;28;20179;-44
2021/07/22 10:48:00;;;;;;;8.90;5.43;;;;;;;28.17;46.51;101727.47;5036470;28;20110;-43
2021/07/22 10:50:39;;;;;;;9.10;4.93;;;;;;;28.28;46.29;101724.34;5034106;28;20443;-44
2021/07/22 10:53:07;;;;;;;6.45;4.35;;;;;;;28.44;46.38;101724.38;5017932;28;20144;-46
2021/07/22 10:55:43;;;;;;;5.05;4.45;;;;;;;28.57;46.45;101727.34;5037188;28;20115;-50
2021/07/22 10:58:32;;;;;;;10.43;6.10;;;;;;;28.60;46.43;101727.22;5033213;28;20429;-49
2021/07/22 11:01:03;;;;;;;9.13;5.50;;;;;;;28.49;46.81;101725.91;5043877;28;20084;-49
2021/07/22 11:03:33;;;;;;;9.68;5.10;;;;;;;28.29;47.38;101718.22;5036701;28;20116;-47
2021/07/22 11:06:07;;;;;;;8.32;4.93;;;;;;;28.25;47.21;101717.50;5035204;28;20490;-48
2021/07/22 11:08:38;;;;;;;7.93;5.53;;;;;;;28.19;47.80;101724.19;5027400;28;20064;-45
2021/07/22 11:11:11;;;;;;;8.70;6.15;;;;;;;28.27;47.44;101719.94;5015825;28;20128;-46
2021/07/22 11:13:38;;;;;;;10.88;5.63;;;;;;;28.32;47.42;101723.03;5027397;28;20145;-47
2021/07/22 11:16:33;;;;;;;8.02;5.45;;;;;;;28.29;47.46;101718.22;5026967;28;20148;-52
2021/07/22 11:19:13;;;;;;;9.32;5.80;;;;;;;28.21;47.95;101708.25;5021557;28;20057;-47
2021/07/22 11:21:49;;;;;;;8.30;5.25;;;;;;;28.22;48.41;101723.31;5025280;28;20384;-45
2021/07/22 11:24:25;;;;;;;10.30;5.07;;;;;;;28.10;48.46;101709.75;5028373;28;20084;-47
2021/07/22 11:26:57;;;;;;;6.95;4.75;;;;;;;28.07;48.29;101705.75;5016401;28;20139;-49
2021/07/22 11:29:24;;;;;;;7.50;5.20;;;;;;;28.09;48.50;101714.63;5027872;28;20063;-46